sensor_id;sensor_type;location;lat;lon;timestamp;pressure;altitude;pressure_sealevel;temperature;humidity
39715;BME280;54166;53.172;-6.552;2022-07-01T00:01:12;98933.23;;;20.02;33.68
39715;BME280;54166;53.172;-6.552;2022-07-01T00:03:39;98936.61;;;20.75;33.68
39715;BME280;54166;53.172;-6.552;2022-07-01T00:06:07;98939.03;;;20.76;33.66
39715;BME280;54166;53.172;-6.552;2022-07-01T00:08:35;98938.91;;;20.08;33.65
39715;BME280;54166;53.172;-6.552;2022-07-01T00:11:03;98938.13;;;20.48;33.64
39715;BME280;54166;53.172;-6.552;2022-07-01T00:13:31;98934.94;;;20.46;33.65
39715;BME280;54166;53.172;-6.552;2022-07-01T00:15:59;98930.49;;;20.05;33.65
39715;BME280;54166;53.172;-6.552;2022-07-01T00:18:27;98930.59;;;20.77;33.65
39715;BME280;54166;53.172;-6.552;2022-07-01T00:20:54;98928.55;;;20.77;33.65
39715;BME280;54166;53.172;-6.552;2022-07-01T00:23:22;98925.63;;;20.43;33.64
39715;BME280;54166;53.172;-6.552;2022-07-01T00:25:50;98925.33;;;20.04;33.64
39715;BME280;54166;53.172;-6.552;2022-07-01T00:28:18;98925.24;;;20.77;33.64
39715;BME280;54166;53.172;-6.552;2022-07-01T00:30:46;98923.67;;;20.77;33.64
39715;BME280;54166;53.172;-6.552;2022-07-01T00:33:13;98918.90;;;20.43;33.63
39715;BME280;54166;53.172;-6.552;2022-07-01T00:35:41;98918.22;;;20.02;33.63
39715;BME280;54166;53.172;-6.552;2022-07-01T00:38:09;98916.03;;;20.02;33.62
39715;BME280;54166;53.172;-6.552;2022-07-01T00:40:36;98917.52;;;20.75;33.62
39715;BME280;54166;53.172;-6.552;2022-07-01T00:43:04;98917.20;;;20.75;33.61
39715;BME280;54166;53.172;-6.552;2022-07-01T00:45:33;98918.81;;;20.42;33.61
39715;BME280;54166;53.172;-6.552;2022-07-01T00:48:01;98921.36;;;20.41;33.60
39715;BME280;54166;53.172;-6.552;2022-07-01T00:50:29;98920.20;;;20.74;33.60
39715;BME280;54166;53.172;-6.552;2022-07-01T00:52:56;98920.23;;;20.75;33.58
39715;BME280;54166;53.172;-6.552;2022-07-01T00:55:24;98918.45;;;20.41;33.55
39715;BME280;54166;53.172;-6.552;2022-07-01T00:57:52;98917.72;;;20.41;33.54
39715;BME280;54166;53.172;-6.552;2022-07-01T01:00:20;98917.72;;;20.74;33.57
39715;BME280;54166;53.172;-6.552;2022-07-01T01:02:47;98919.05;;;20.41;33.57
39715;BME280;54166;53.172;-6.552;2022-07-01T01:05:15;98917.73;;;20.42;33.55
39715;BME280;54166;53.172;-6.552;2022-07-01T01:07:43;98915.66;;;20.42;33.52
39715;BME280;54166;53.172;-6.552;2022-07-01T01:10:10;98917.94;;;20.74;33.51
39715;BME280;54166;53.172;-6.552;2022-07-01T01:12:39;98919.35;;;20.41;33.50
39715;BME280;54166;53.172;-6.552;2022-07-01T01:15:07;98920.22;;;20.42;33.54
39715;BME280;54166;53.172;-6.552;2022-07-01T01:17:36;98920.58;;;20.42;33.52
39715;BME280;54166;53.172;-6.552;2022-07-01T01:20:04;98919.19;;;20.76;33.50
39715;BME280;54166;53.172;-6.552;2022-07-01T01:22:32;98920.47;;;20.42;33.51
39715;BME280;54166;53.172;-6.552;2022-07-01T01:24:59;98922.52;;;20.42;33.50
39715;BME280;54166;53.172;-6.552;2022-07-01T01:27:27;98924.16;;;20.75;33.50
39715;BME280;54166;53.172;-6.552;2022-07-01T01:29:55;98925.26;;;20.75;33.50
39715;BME280;54166;53.172;-6.552;2022-07-01T01:32:23;98927.20;;;20.41;33.49
39715;BME280;54166;53.172;-6.552;2022-07-01T01:34:51;98926.83;;;20.01;33.48
39715;BME280;54166;53.172;-6.552;2022-07-01T01:37:18;98929.73;;;20.74;33.48
39715;BME280;54166;53.172;-6.552;2022-07-01T01:39:46;98930.21;;;20.42;33.45
39715;BME280;54166;53.172;-6.552;2022-07-01T01:42:14;98932.63;;;20.42;33.47
39715;BME280;54166;53.172;-6.552;2022-07-01T01:44:41;98932.99;;;20.75;33.46
39715;BME280;54166;53.172;-6.552;2022-07-01T01:47:09;98930.17;;;20.75;33.48
39715;BME280;54166;53.172;-6.552;2022-07-01T01:49:37;98933.02;;;20.42;33.54
39715;BME280;54166;53.172;-6.552;2022-07-01T01:52:05;98931.70;;;20.42;33.57
39715;BME280;54166;53.172;-6.552;2022-07-01T01:54:33;98934.17;;;20.42;33.58
39715;BME280;54166;53.172;-6.552;2022-07-01T01:57:01;98934.56;;;20.02;33.58
39715;BME280;54166;53.172;-6.552;2022-07-01T01:59:29;98931.30;;;20.42;33.53
39715;BME280;54166;53.172;-6.552;2022-07-01T02:02:02;98927.86;;;20.76;33.54
39715;BME280;54166;53.172;-6.552;2022-07-01T02:04:29;98929.73;;;20.74;33.55
39715;BME280;54166;53.172;-6.552;2022-07-01T02:06:57;98932.12;;;20.42;33.57
39715;BME280;54166;53.172;-6.552;2022-07-01T02:09:25;98932.22;;;20.74;33.66
39715;BME280;54166;53.172;-6.552;2022-07-01T02:11:53;98933.29;;;20.74;33.66
39715;BME280;54166;53.172;-6.552;2022-07-01T02:14:21;98934.57;;;20.41;33.64
39715;BME280;54166;53.172;-6.552;2022-07-01T02:16:49;98935.40;;;20.75;33.64
39715;BME280;54166;53.172;-6.552;2022-07-01T02:19:17;98935.07;;;20.74;33.65
39715;BME280;54166;53.172;-6.552;2022-07-01T02:21:44;98934.59;;;20.75;33.63
39715;BME280;54166;53.172;-6.552;2022-07-01T02:24:12;98934.01;;;20.74;33.64
39715;BME280;54166;53.172;-6.552;2022-07-01T02:26:40;98931.84;;;20.42;33.64
39715;BME280;54166;53.172;-6.552;2022-07-01T02:33:09;98930.70;;;21.31;34.53
39715;BME280;54166;53.172;-6.552;2022-07-01T02:35:39;98930.83;;;19.72;34.00
39715;BME280;54166;53.172;-6.552;2022-07-01T02:38:07;98931.31;;;19.92;33.88
39715;BME280;54166;53.172;-6.552;2022-07-01T02:40:35;98928.77;;;20.34;33.87
39715;BME280;54166;53.172;-6.552;2022-07-01T02:43:03;98931.10;;;20.36;33.85
39715;BME280;54166;53.172;-6.552;2022-07-01T02:45:31;98936.99;;;20.70;33.88
39715;BME280;54166;53.172;-6.552;2022-07-01T02:47:59;98936.23;;;20.37;33.88
39715;BME280;54166;53.172;-6.552;2022-07-01T02:50:27;98938.39;;;20.71;33.91
39715;BME280;54166;53.172;-6.552;2022-07-01T02:52:55;98939.00;;;20.71;33.87
39715;BME280;54166;53.172;-6.552;2022-07-01T02:55:23;98938.59;;;20.38;33.92
39715;BME280;54166;53.172;-6.552;2022-07-01T03:01:43;98937.50;;;20.69;33.50
39715;BME280;54166;53.172;-6.552;2022-07-01T03:04:11;98935.62;;;20.23;33.63
39715;BME280;54166;53.172;-6.552;2022-07-01T03:06:38;98932.90;;;20.21;33.70
39715;BME280;54166;53.172;-6.552;2022-07-01T03:09:06;98931.37;;;20.20;33.70
39715;BME280;54166;53.172;-6.552;2022-07-01T03:11:34;98930.89;;;20.15;33.74
39715;BME280;54166;53.172;-6.552;2022-07-01T03:14:01;98936.55;;;20.49;33.80
39715;BME280;54166;53.172;-6.552;2022-07-01T03:16:29;98934.15;;;20.79;33.86
39715;BME280;54166;53.172;-6.552;2022-07-01T03:18:57;98935.97;;;20.43;33.83
39715;BME280;54166;53.172;-6.552;2022-07-01T03:21:25;98935.28;;;20.75;33.91
39715;BME280;54166;53.172;-6.552;2022-07-01T03:23:52;98935.70;;;20.40;33.92
39715;BME280;54166;53.172;-6.552;2022-07-01T03:26:20;98934.58;;;20.40;33.96
39715;BME280;54166;53.172;-6.552;2022-07-01T03:28:48;98935.57;;;20.73;33.97
39715;BME280;54166;53.172;-6.552;2022-07-01T03:31:16;98934.64;;;20.39;34.00
39715;BME280;54166;53.172;-6.552;2022-07-01T03:33:43;98931.28;;;20.37;34.01
39715;BME280;54166;53.172;-6.552;2022-07-01T03:36:11;98932.64;;;20.71;34.01
39715;BME280;54166;53.172;-6.552;2022-07-01T03:38:39;98933.73;;;20.70;33.93
39715;BME280;54166;53.172;-6.552;2022-07-01T03:41:06;98933.47;;;20.36;33.99
39715;BME280;54166;53.172;-6.552;2022-07-01T03:43:34;98935.53;;;20.37;34.03
39715;BME280;54166;53.172;-6.552;2022-07-01T03:46:02;98935.66;;;20.70;34.02
39715;BME280;54166;53.172;-6.552;2022-07-01T03:48:29;98933.90;;;20.36;33.95
39715;BME280;54166;53.172;-6.552;2022-07-01T03:50:57;98933.90;;;21.03;34.00
39715;BME280;54166;53.172;-6.552;2022-07-01T03:53:25;98932.08;;;20.70;34.03
39715;BME280;54166;53.172;-6.552;2022-07-01T03:55:53;98930.24;;;20.69;33.98
39715;BME280;54166;53.172;-6.552;2022-07-01T03:58:21;98931.63;;;20.36;34.03
39715;BME280;54166;53.172;-6.552;2022-07-01T04:00:49;98929.96;;;20.36;34.09
39715;BME280;54166;53.172;-6.552;2022-07-01T04:03:17;98930.02;;;20.69;34.07
39715;BME280;54166;53.172;-6.552;2022-07-01T04:05:45;98932.90;;;20.69;34.06
39715;BME280;54166;53.172;-6.552;2022-07-01T04:08:13;98933.99;;;20.36;34.05
39715;BME280;54166;53.172;-6.552;2022-07-01T04:10:41;98936.32;;;20.36;33.95
39715;BME280;54166;53.172;-6.552;2022-07-01T04:13:09;98935.76;;;20.35;33.91
39715;BME280;54166;53.172;-6.552;2022-07-01T04:15:37;98937.39;;;20.35;33.96
39715;BME280;54166;53.172;-6.552;2022-07-01T04:18:04;98935.70;;;21.02;33.96
39715;BME280;54166;53.172;-6.552;2022-07-01T04:20:32;98936.09;;;20.69;33.95
39715;BME280;54166;53.172;-6.552;2022-07-01T04:22:59;98934.08;;;20.34;33.99
39715;BME280;54166;53.172;-6.552;2022-07-01T04:25:27;98933.70;;;20.67;33.97
39715;BME280;54166;53.172;-6.552;2022-07-01T04:27:55;98937.11;;;20.68;34.03
39715;BME280;54166;53.172;-6.552;2022-07-01T04:30:23;98941.32;;;20.68;34.01
39715;BME280;54166;53.172;-6.552;2022-07-01T04:32:50;98942.75;;;20.67;34.07
39715;BME280;54166;53.172;-6.552;2022-07-01T04:35:23;98944.48;;;19.93;34.11
39715;BME280;54166;53.172;-6.552;2022-07-01T04:37:51;98945.27;;;20.32;34.08
39715;BME280;54166;53.172;-6.552;2022-07-01T04:40:19;98943.45;;;20.32;34.08
39715;BME280;54166;53.172;-6.552;2022-07-01T04:42:47;98942.22;;;20.33;34.10
39715;BME280;54166;53.172;-6.552;2022-07-01T04:45:14;98940.18;;;20.66;34.12
39715;BME280;54166;53.172;-6.552;2022-07-01T04:47:42;98937.04;;;20.66;34.10
39715;BME280;54166;53.172;-6.552;2022-07-01T04:50:10;98940.62;;;20.33;34.13
39715;BME280;54166;53.172;-6.552;2022-07-01T04:52:38;98940.18;;;20.33;34.11
39715;BME280;54166;53.172;-6.552;2022-07-01T04:55:10;98939.23;;;19.93;34.13
39715;BME280;54166;53.172;-6.552;2022-07-01T04:57:38;98941.97;;;20.64;34.11
39715;BME280;54166;53.172;-6.552;2022-07-01T05:00:07;98944.42;;;20.31;34.16
39715;BME280;54166;53.172;-6.552;2022-07-01T05:02:35;98943.83;;;20.65;34.16
39715;BME280;54166;53.172;-6.552;2022-07-01T05:05:04;98944.21;;;20.65;34.17
39715;BME280;54166;53.172;-6.552;2022-07-01T05:07:32;98942.87;;;19.91;34.17
39715;BME280;54166;53.172;-6.552;2022-07-01T05:09:59;98944.74;;;20.68;34.13
39715;BME280;54166;53.172;-6.552;2022-07-01T05:12:27;98943.36;;;20.65;34.18
39715;BME280;54166;53.172;-6.552;2022-07-01T05:14:55;98943.33;;;20.68;34.13
39715;BME280;54166;53.172;-6.552;2022-07-01T05:17:23;98943.45;;;20.33;34.15
39715;BME280;54166;53.172;-6.552;2022-07-01T05:19:50;98944.42;;;20.66;34.17
39715;BME280;54166;53.172;-6.552;2022-07-01T05:22:18;98946.82;;;20.66;34.17
39715;BME280;54166;53.172;-6.552;2022-07-01T05:24:46;98943.52;;;20.64;34.20
39715;BME280;54166;53.172;-6.552;2022-07-01T05:27:14;98945.67;;;19.98;34.15
39715;BME280;54166;53.172;-6.552;2022-07-01T05:29:42;98948.04;;;20.03;34.08
39715;BME280;54166;53.172;-6.552;2022-07-01T05:32:10;98947.38;;;20.39;34.12
39715;BME280;54166;53.172;-6.552;2022-07-01T05:34:38;98947.79;;;20.36;34.13
39715;BME280;54166;53.172;-6.552;2022-07-01T05:37:06;98950.51;;;20.37;34.14
39715;BME280;54166;53.172;-6.552;2022-07-01T05:39:33;98945.67;;;21.00;34.13
39715;BME280;54166;53.172;-6.552;2022-07-01T05:42:01;98945.27;;;20.32;34.16
39715;BME280;54166;53.172;-6.552;2022-07-01T05:44:29;98943.96;;;20.33;34.18
39715;BME280;54166;53.172;-6.552;2022-07-01T05:46:56;98947.74;;;20.65;34.15
39715;BME280;54166;53.172;-6.552;2022-07-01T05:49:24;98947.09;;;19.92;34.17
39715;BME280;54166;53.172;-6.552;2022-07-01T05:51:52;98944.41;;;20.65;34.15
39715;BME280;54166;53.172;-6.552;2022-07-01T05:54:20;98943.10;;;20.65;34.17
39715;BME280;54166;53.172;-6.552;2022-07-01T05:56:47;98942.72;;;20.65;34.17
39715;BME280;54166;53.172;-6.552;2022-07-01T05:59:15;98943.81;;;20.64;34.13
39715;BME280;54166;53.172;-6.552;2022-07-01T06:01:44;98943.42;;;20.31;34.14
39715;BME280;54166;53.172;-6.552;2022-07-01T06:04:11;98942.31;;;20.30;34.14
39715;BME280;54166;53.172;-6.552;2022-07-01T06:06:39;98945.94;;;20.63;34.14
39715;BME280;54166;53.172;-6.552;2022-07-01T06:09:07;98947.92;;;20.31;34.18
39715;BME280;54166;53.172;-6.552;2022-07-01T06:11:35;98946.19;;;20.31;34.17
39715;BME280;54166;53.172;-6.552;2022-07-01T06:14:02;98944.38;;;20.64;34.17
39715;BME280;54166;53.172;-6.552;2022-07-01T06:16:30;98947.73;;;20.64;34.14
39715;BME280;54166;53.172;-6.552;2022-07-01T06:18:58;98948.61;;;20.26;34.17
39715;BME280;54166;53.172;-6.552;2022-07-01T06:21:26;98948.73;;;20.64;34.14
39715;BME280;54166;53.172;-6.552;2022-07-01T06:23:53;98946.38;;;20.63;34.14
39715;BME280;54166;53.172;-6.552;2022-07-01T06:26:21;98946.85;;;20.30;34.13
39715;BME280;54166;53.172;-6.552;2022-07-01T06:28:49;98949.44;;;20.64;34.14
39715;BME280;54166;53.172;-6.552;2022-07-01T06:31:17;98949.93;;;20.31;34.12
39715;BME280;54166;53.172;-6.552;2022-07-01T06:33:44;98949.82;;;20.63;34.11
39715;BME280;54166;53.172;-6.552;2022-07-01T06:36:12;98949.44;;;19.90;34.17
39715;BME280;54166;53.172;-6.552;2022-07-01T06:38:40;98948.63;;;20.63;34.14
39715;BME280;54166;53.172;-6.552;2022-07-01T06:41:07;98948.44;;;20.63;34.23
39715;BME280;54166;53.172;-6.552;2022-07-01T06:43:35;98949.48;;;20.29;34.20
39715;BME280;54166;53.172;-6.552;2022-07-01T06:46:04;98950.51;;;19.85;34.21
39715;BME280;54166;53.172;-6.552;2022-07-01T06:48:31;98950.95;;;20.62;34.20
39715;BME280;54166;53.172;-6.552;2022-07-01T06:50:59;98950.06;;;20.28;34.24
39715;BME280;54166;53.172;-6.552;2022-07-01T06:53:27;98947.98;;;20.29;34.25
39715;BME280;54166;53.172;-6.552;2022-07-01T06:55:56;98944.95;;;20.62;34.20
39715;BME280;54166;53.172;-6.552;2022-07-01T06:58:24;98946.83;;;20.58;34.23
39715;BME280;54166;53.172;-6.552;2022-07-01T07:00:51;98946.78;;;20.29;34.23
39715;BME280;54166;53.172;-6.552;2022-07-01T07:03:19;98946.55;;;20.62;34.29
39715;BME280;54166;53.172;-6.552;2022-07-01T07:05:47;98950.91;;;20.31;34.30
39715;BME280;54166;53.172;-6.552;2022-07-01T07:08:14;98947.90;;;20.25;34.31
39715;BME280;54166;53.172;-6.552;2022-07-01T07:10:42;98949.49;;;20.63;34.31
39715;BME280;54166;53.172;-6.552;2022-07-01T07:13:10;98950.51;;;20.31;34.31
39715;BME280;54166;53.172;-6.552;2022-07-01T07:15:43;98952.16;;;20.64;34.33
39715;BME280;54166;53.172;-6.552;2022-07-01T07:18:10;98952.19;;;20.62;34.31
39715;BME280;54166;53.172;-6.552;2022-07-01T07:20:38;98955.23;;;20.29;34.26
39715;BME280;54166;53.172;-6.552;2022-07-01T07:23:06;98955.17;;;20.31;34.26
39715;BME280;54166;53.172;-6.552;2022-07-01T07:25:35;98950.48;;;20.64;34.22
39715;BME280;54166;53.172;-6.552;2022-07-01T07:28:03;98951.30;;;20.32;34.23
39715;BME280;54166;53.172;-6.552;2022-07-01T07:30:30;98952.52;;;20.65;34.26
39715;BME280;54166;53.172;-6.552;2022-07-01T07:32:58;98951.56;;;20.65;34.30
39715;BME280;54166;53.172;-6.552;2022-07-01T07:35:26;98952.31;;;20.66;34.33
39715;BME280;54166;53.172;-6.552;2022-07-01T07:37:53;98952.12;;;20.65;34.31
39715;BME280;54166;53.172;-6.552;2022-07-01T07:40:21;98949.40;;;20.66;34.39
39715;BME280;54166;53.172;-6.552;2022-07-01T07:42:49;98946.65;;;20.33;34.32
39715;BME280;54166;53.172;-6.552;2022-07-01T07:45:17;98946.91;;;20.33;34.35
39715;BME280;54166;53.172;-6.552;2022-07-01T07:47:46;98945.84;;;20.65;34.34
39715;BME280;54166;53.172;-6.552;2022-07-01T07:50:15;98948.36;;;20.32;34.33
39715;BME280;54166;53.172;-6.552;2022-07-01T07:52:43;98946.56;;;20.66;34.35
39715;BME280;54166;53.172;-6.552;2022-07-01T07:55:11;98946.77;;;20.67;34.34
39715;BME280;54166;53.172;-6.552;2022-07-01T07:57:41;98947.96;;;20.68;34.30
39715;BME280;54166;53.172;-6.552;2022-07-01T08:00:11;98949.15;;;20.68;34.29
39715;BME280;54166;53.172;-6.552;2022-07-01T08:02:41;98947.16;;;20.36;34.28
39715;BME280;54166;53.172;-6.552;2022-07-01T08:05:10;98944.65;;;19.94;34.33
39715;BME280;54166;53.172;-6.552;2022-07-01T08:07:39;98939.97;;;20.33;34.33
39715;BME280;54166;53.172;-6.552;2022-07-01T08:10:09;98942.50;;;20.68;34.31
39715;BME280;54166;53.172;-6.552;2022-07-01T08:12:37;98938.09;;;20.33;34.35
39715;BME280;54166;53.172;-6.552;2022-07-01T08:15:06;98937.16;;;20.68;34.37
39715;BME280;54166;53.172;-6.552;2022-07-01T08:17:34;98940.83;;;20.67;34.39
39715;BME280;54166;53.172;-6.552;2022-07-01T08:20:03;98945.67;;;20.68;34.47
39715;BME280;54166;53.172;-6.552;2022-07-01T08:22:31;98947.64;;;20.68;34.38
39715;BME280;54166;53.172;-6.552;2022-07-01T08:24:58;98946.61;;;20.34;34.35
39715;BME280;54166;53.172;-6.552;2022-07-01T08:27:26;98944.95;;;20.34;34.33
39715;BME280;54166;53.172;-6.552;2022-07-01T08:29:54;98941.18;;;20.69;34.26
39715;BME280;54166;53.172;-6.552;2022-07-01T08:32:21;98936.45;;;20.35;34.23
39715;BME280;54166;53.172;-6.552;2022-07-01T08:34:51;98937.96;;;20.34;34.21
39715;BME280;54166;53.172;-6.552;2022-07-01T08:37:19;98931.26;;;20.67;34.23
39715;BME280;54166;53.172;-6.552;2022-07-01T08:39:47;98932.74;;;20.33;34.21
39715;BME280;54166;53.172;-6.552;2022-07-01T08:42:16;98933.41;;;20.33;34.19
39715;BME280;54166;53.172;-6.552;2022-07-01T08:44:44;98929.57;;;20.67;34.20
39715;BME280;54166;53.172;-6.552;2022-07-01T08:47:13;98931.42;;;20.67;34.16
39715;BME280;54166;53.172;-6.552;2022-07-01T08:49:42;98930.42;;;19.96;34.14
39715;BME280;54166;53.172;-6.552;2022-07-01T08:52:10;98933.41;;;20.35;34.15
39715;BME280;54166;53.172;-6.552;2022-07-01T08:54:38;98935.33;;;20.67;34.14
39715;BME280;54166;53.172;-6.552;2022-07-01T08:57:06;98935.91;;;20.34;34.13
39715;BME280;54166;53.172;-6.552;2022-07-01T08:59:35;98937.12;;;20.68;34.12
39715;BME280;54166;53.172;-6.552;2022-07-01T09:02:05;98937.26;;;20.67;34.10
39715;BME280;54166;53.172;-6.552;2022-07-01T09:04:34;98938.49;;;20.67;34.07
39715;BME280;54166;53.172;-6.552;2022-07-01T09:07:06;98932.52;;;20.34;34.06
39715;BME280;54166;53.172;-6.552;2022-07-01T09:09:36;98933.65;;;20.66;34.04
39715;BME280;54166;53.172;-6.552;2022-07-01T09:12:07;98926.50;;;20.33;34.05
39715;BME280;54166;53.172;-6.552;2022-07-01T09:14:35;98924.11;;;20.33;34.05
39715;BME280;54166;53.172;-6.552;2022-07-01T09:17:04;98920.47;;;20.68;34.05
39715;BME280;54166;53.172;-6.552;2022-07-01T09:19:34;98917.79;;;20.36;34.05
39715;BME280;54166;53.172;-6.552;2022-07-01T09:22:03;98919.62;;;20.68;34.07
39715;BME280;54166;53.172;-6.552;2022-07-01T09:24:33;98914.17;;;20.36;34.07
39715;BME280;54166;53.172;-6.552;2022-07-01T09:27:03;98911.70;;;20.36;34.10
39715;BME280;54166;53.172;-6.552;2022-07-01T09:29:32;98915.47;;;20.69;34.10
39715;BME280;54166;53.172;-6.552;2022-07-01T09:32:03;98916.04;;;20.70;34.10
39715;BME280;54166;53.172;-6.552;2022-07-01T09:34:39;98914.31;;;20.37;34.10
39715;BME280;54166;53.172;-6.552;2022-07-01T09:37:07;98916.27;;;20.69;34.11
39715;BME280;54166;53.172;-6.552;2022-07-01T09:39:42;98914.53;;;20.37;34.12
39715;BME280;54166;53.172;-6.552;2022-07-01T09:42:10;98911.47;;;20.68;34.14
39715;BME280;54166;53.172;-6.552;2022-07-01T09:44:51;98910.02;;;20.69;34.14
39715;BME280;54166;53.172;-6.552;2022-07-01T09:47:22;98906.14;;;20.66;34.18
39715;BME280;54166;53.172;-6.552;2022-07-01T09:49:51;98902.91;;;20.67;34.17
39715;BME280;54166;53.172;-6.552;2022-07-01T09:52:20;98906.33;;;20.68;34.15
39715;BME280;54166;53.172;-6.552;2022-07-01T09:54:51;98908.55;;;20.35;34.14
39715;BME280;54166;53.172;-6.552;2022-07-01T09:57:21;98908.60;;;20.35;34.16
39715;BME280;54166;53.172;-6.552;2022-07-01T09:59:50;98906.88;;;20.69;34.14
39715;BME280;54166;53.172;-6.552;2022-07-01T10:02:19;98901.88;;;20.70;34.13
39715;BME280;54166;53.172;-6.552;2022-07-01T10:04:51;98898.75;;;20.70;34.13
39715;BME280;54166;53.172;-6.552;2022-07-01T10:07:32;98894.30;;;20.36;34.14
39715;BME280;54166;53.172;-6.552;2022-07-01T10:10:14;98893.06;;;20.33;34.16
39715;BME280;54166;53.172;-6.552;2022-07-01T10:12:47;98884.70;;;20.33;34.15
39715;BME280;54166;53.172;-6.552;2022-07-01T10:15:19;98885.32;;;20.67;34.13
39715;BME280;54166;53.172;-6.552;2022-07-01T10:17:49;98887.23;;;20.35;34.11
39715;BME280;54166;53.172;-6.552;2022-07-01T10:20:19;98880.98;;;20.68;34.01
39715;BME280;54166;53.172;-6.552;2022-07-01T10:22:47;98883.17;;;19.94;33.83
39715;BME280;54166;53.172;-6.552;2022-07-01T10:25:34;98878.37;;;20.68;33.78
39715;BME280;54166;53.172;-6.552;2022-07-01T10:28:22;98884.32;;;20.62;33.88
39715;BME280;54166;53.172;-6.552;2022-07-01T10:30:55;98886.26;;;20.60;33.91
39715;BME280;54166;53.172;-6.552;2022-07-01T10:33:56;98882.29;;;21.34;33.91
39715;BME280;54166;53.172;-6.552;2022-07-01T10:36:27;98881.91;;;20.22;33.94
39715;BME280;54166;53.172;-6.552;2022-07-01T10:39:13;98881.15;;;20.58;33.78
39715;BME280;54166;53.172;-6.552;2022-07-01T10:41:55;98875.82;;;20.23;33.66
39715;BME280;54166;53.172;-6.552;2022-07-01T10:44:26;98878.87;;;20.57;33.76
39715;BME280;54166;53.172;-6.552;2022-07-01T10:46:59;98871.34;;;20.28;33.73
39715;BME280;54166;53.172;-6.552;2022-07-01T10:50:07;98869.23;;;21.38;33.72
39715;BME280;54166;53.172;-6.552;2022-07-01T10:52:35;98867.22;;;20.59;33.73
39715;BME280;54166;53.172;-6.552;2022-07-01T10:55:07;98872.04;;;20.31;33.64
39715;BME280;54166;53.172;-6.552;2022-07-01T10:57:39;98875.96;;;20.67;33.60
39715;BME280;54166;53.172;-6.552;2022-07-01T11:00:41;98869.53;;;21.40;33.56
39715;BME280;54166;53.172;-6.552;2022-07-01T11:03:15;98866.09;;;20.61;33.61
39715;BME280;54166;53.172;-6.552;2022-07-01T11:05:46;98863.85;;;20.64;33.60
39715;BME280;54166;53.172;-6.552;2022-07-01T11:08:14;98865.81;;;20.34;33.56
39715;BME280;54166;53.172;-6.552;2022-07-01T11:10:42;98869.56;;;20.70;33.50
39715;BME280;54166;53.172;-6.552;2022-07-01T11:13:13;98871.28;;;20.38;33.47
39715;BME280;54166;53.172;-6.552;2022-07-01T11:15:44;98867.79;;;20.70;33.46
39715;BME280;54166;53.172;-6.552;2022-07-01T11:18:13;98869.22;;;20.38;33.47
39715;BME280;54166;53.172;-6.552;2022-07-01T11:20:41;98871.74;;;20.71;33.45
39715;BME280;54166;53.172;-6.552;2022-07-01T11:23:09;98870.73;;;20.72;33.42
39715;BME280;54166;53.172;-6.552;2022-07-01T11:25:37;98868.65;;;20.73;33.43
39715;BME280;54166;53.172;-6.552;2022-07-01T11:28:04;98862.27;;;20.73;33.43
39715;BME280;54166;53.172;-6.552;2022-07-01T11:30:32;98858.64;;;19.99;33.45
39715;BME280;54166;53.172;-6.552;2022-07-01T11:33:00;98858.26;;;20.73;33.47
39715;BME280;54166;53.172;-6.552;2022-07-01T11:35:33;98858.18;;;20.72;33.52
39715;BME280;54166;53.172;-6.552;2022-07-01T11:38:10;98858.17;;;20.37;33.50
39715;BME280;54166;53.172;-6.552;2022-07-01T11:40:38;98857.43;;;19.96;33.50
39715;BME280;54166;53.172;-6.552;2022-07-01T11:43:18;98857.97;;;20.70;33.50
39715;BME280;54166;53.172;-6.552;2022-07-01T11:45:46;98853.62;;;20.35;33.50
39715;BME280;54166;53.172;-6.552;2022-07-01T11:48:28;98854.16;;;20.37;33.50
39715;BME280;54166;53.172;-6.552;2022-07-01T11:50:57;98854.80;;;20.67;33.51
39715;BME280;54166;53.172;-6.552;2022-07-01T11:53:26;98854.65;;;20.69;33.48
39715;BME280;54166;53.172;-6.552;2022-07-01T11:55:54;98850.02;;;20.71;33.46
39715;BME280;54166;53.172;-6.552;2022-07-01T11:58:22;98845.92;;;20.72;33.40
39715;BME280;54166;53.172;-6.552;2022-07-01T12:00:49;98843.96;;;20.72;33.41
39715;BME280;54166;53.172;-6.552;2022-07-01T12:03:30;98847.39;;;20.38;33.39
39715;BME280;54166;53.172;-6.552;2022-07-01T12:05:58;98850.28;;;20.36;33.42
39715;BME280;54166;53.172;-6.552;2022-07-01T12:08:26;98849.72;;;20.37;33.40
39715;BME280;54166;53.172;-6.552;2022-07-01T12:10:54;98851.94;;;20.37;33.34
39715;BME280;54166;53.172;-6.552;2022-07-01T12:13:22;98849.98;;;20.70;33.34
39715;BME280;54166;53.172;-6.552;2022-07-01T12:15:50;98849.28;;;20.38;33.37
39715;BME280;54166;53.172;-6.552;2022-07-01T12:18:18;98852.50;;;20.72;33.35
39715;BME280;54166;53.172;-6.552;2022-07-01T12:20:50;98850.18;;;20.72;33.34
39715;BME280;54166;53.172;-6.552;2022-07-01T12:23:18;98857.73;;;20.72;33.32
39715;BME280;54166;53.172;-6.552;2022-07-01T12:25:48;98850.28;;;20.71;33.27
39715;BME280;54166;53.172;-6.552;2022-07-01T12:28:33;98845.44;;;19.98;33.31
39715;BME280;54166;53.172;-6.552;2022-07-01T12:31:03;98840.95;;;20.34;33.28
39715;BME280;54166;53.172;-6.552;2022-07-01T12:33:31;98840.16;;;20.69;33.30
39715;BME280;54166;53.172;-6.552;2022-07-01T12:36:01;98834.13;;;20.71;33.27
39715;BME280;54166;53.172;-6.552;2022-07-01T12:38:29;98834.47;;;20.38;33.28
39715;BME280;54166;53.172;-6.552;2022-07-01T12:40:57;98831.18;;;20.72;33.31
39715;BME280;54166;53.172;-6.552;2022-07-01T12:43:26;98830.03;;;20.38;33.28
39715;BME280;54166;53.172;-6.552;2022-07-01T12:45:55;98834.25;;;20.38;33.31
39715;BME280;54166;53.172;-6.552;2022-07-01T12:48:23;98832.06;;;20.38;33.31
39715;BME280;54166;53.172;-6.552;2022-07-01T12:50:53;98834.02;;;20.73;33.30
39715;BME280;54166;53.172;-6.552;2022-07-01T12:53:22;98834.53;;;20.39;33.35
39715;BME280;54166;53.172;-6.552;2022-07-01T12:55:52;98834.73;;;20.40;33.38
39715;BME280;54166;53.172;-6.552;2022-07-01T12:58:22;98832.45;;;20.73;33.44
39715;BME280;54166;53.172;-6.552;2022-07-01T13:00:54;98832.46;;;20.73;33.47
39715;BME280;54166;53.172;-6.552;2022-07-01T13:03:23;98836.10;;;20.73;33.50
39715;BME280;54166;53.172;-6.552;2022-07-01T13:05:52;98835.58;;;20.73;33.52
39715;BME280;54166;53.172;-6.552;2022-07-01T13:08:21;98838.42;;;20.73;33.54